Time;durP1;ratioP1;P1;durP2;ratioP2;P2;SDS_P1;SDS_P2;PMS_P1;PMS_P2;Temp;Humidity;BMP_temperature;BMP_pressure;BME280_temperature;BME280_humidity;BME280_pressure;Samples;Min_cycle;Max_cycle;Signal;HPM_P1;HPM_P2
2022/07/05 00:00:57;;;;;;;4.60;3.00;;;;;;;12.44;100.00;98748.44;5103857;28;20095;-69
2022/07/05 00:03:23;;;;;;;4.55;3.20;;;;;;;12.47;100.00;98749.22;5105910;28;20024;-69
2022/07/05 00:05:49;;;;;;;7.45;3.47;;;;;;;12.45;100.00;98756.31;5107687;28;20111;-69
2022/07/05 00:08:14;;;;;;;6.47;2.83;;;;;;;12.40;99.81;98758.19;5107518;28;20024;-69
2022/07/05 00:10:40;;;;;;;4.93;2.70;;;;;;;12.17;98.69;98749.97;5107523;28;20031;-69
2022/07/05 00:13:06;;;;;;;4.40;2.40;;;;;;;12.22;99.96;98758.63;5107503;28;20315;-69
2022/07/05 00:15:32;;;;;;;2.95;2.15;;;;;;;12.25;99.85;98749.78;5107519;28;20307;-69
2022/07/05 00:17:58;;;;;;;3.85;2.30;;;;;;;12.28;100.00;98752.38;5107428;28;20015;-69
2022/07/05 00:20:24;;;;;;;7.35;2.72;;;;;;;12.25;99.95;98753.28;5107368;28;20020;-69
2022/07/05 00:22:50;;;;;;;4.97;2.40;;;;;;;12.17;98.92;98752.63;5107351;28;20051;-69
2022/07/05 00:25:15;;;;;;;3.67;2.25;;;;;;;12.14;99.29;98755.31;5107293;28;20058;-69
2022/07/05 00:27:41;;;;;;;6.20;2.92;;;;;;;12.02;99.26;98744.22;5107180;28;20019;-69
2022/07/05 00:30:07;;;;;;;7.82;3.33;;;;;;;12.06;100.00;98756.41;5107134;28;20053;-69
2022/07/05 00:32:32;;;;;;;6.22;3.08;;;;;;;11.90;100.00;98749.75;5107396;28;20436;-69
2022/07/05 00:34:58;;;;;;;12.98;3.33;;;;;;;11.95;100.00;98754.03;5107157;28;20023;-69
2022/07/05 00:37:23;;;;;;;10.93;3.38;;;;;;;11.97;100.00;98762.78;5107022;28;20020;-69
2022/07/05 00:39:49;;;;;;;4.72;2.78;;;;;;;11.81;100.00;98761.38;5106932;28;20312;-69
2022/07/05 00:42:14;;;;;;;4.80;2.50;;;;;;;11.90;100.00;98766.44;5106951;28;20031;-69
2022/07/05 00:44:41;;;;;;;4.55;2.85;;;;;;;11.89;100.00;98763.81;5106946;28;20244;-69
2022/07/05 00:47:08;;;;;;;4.63;2.80;;;;;;;11.88;100.00;98762.97;5107117;28;20020;-69
2022/07/05 00:49:35;;;;;;;7.03;2.67;;;;;;;11.83;100.00;98761.34;5106832;28;20027;-69
2022/07/05 00:52:02;;;;;;;5.85;2.80;;;;;;;11.70;100.00;98771.28;5106858;28;20030;-69
2022/07/05 00:54:29;;;;;;;8.57;3.10;;;;;;;11.52;100.00;98771.63;5107637;28;20081;-69
2022/07/05 00:56:55;;;;;;;3.92;2.60;;;;;;;11.59;100.00;98770.63;5113628;28;20024;-69
2022/07/05 00:59:20;;;;;;;8.23;2.90;;;;;;;11.65;100.00;98770.53;5114949;28;20329;-69
2022/07/05 01:01:46;;;;;;;9.07;2.85;;;;;;;11.67;100.00;98773.97;5122535;28;20020;-69
2022/07/05 01:04:12;;;;;;;9.77;3.22;;;;;;;11.56;100.00;98778.59;5112667;28;20019;-69
2022/07/05 01:06:39;;;;;;;3.90;2.70;;;;;;;11.56;100.00;98770.69;5106753;28;20203;-69
2022/07/05 01:09:05;;;;;;;5.43;2.85;;;;;;;11.54;100.00;98769.84;5106385;28;20016;-69
2022/07/05 01:11:30;;;;;;;4.03;3.05;;;;;;;11.52;100.00;98768.16;5106469;28;20053;-69
2022/07/05 01:13:59;;;;;;;5.13;2.60;;;;;;;11.28;100.00;98774.78;5106134;28;20315;-69
2022/07/05 01:16:25;;;;;;;8.23;2.35;;;;;;;11.21;100.00;98773.16;5106306;28;20027;-69
2022/07/05 01:18:51;;;;;;;7.00;2.88;;;;;;;11.38;100.00;98775.44;5106287;28;20022;-69
2022/07/05 01:21:19;;;;;;;8.18;3.38;;;;;;;11.42;100.00;98772.72;5106212;28;20027;-69
2022/07/05 01:23:45;;;;;;;6.80;2.92;;;;;;;11.37;100.00;98773.72;5106249;28;20020;-69
2022/07/05 01:26:11;;;;;;;7.82;3.15;;;;;;;11.28;100.00;98774.78;5106001;28;20067;-69
2022/07/05 01:28:36;;;;;;;7.15;3.30;;;;;;;11.24;100.00;98775.75;5106009;28;20023;-69
2022/07/05 01:31:01;;;;;;;5.18;2.90;;;;;;;11.24;100.00;98773.13;5106034;28;20024;-69
2022/07/05 01:33:29;;;;;;;5.40;2.97;;;;;;;11.14;100.00;98778.59;5106017;28;20066;-69
2022/07/05 01:35:55;;;;;;;5.13;3.20;;;;;;;11.17;100.00;98784.66;5105942;28;20129;-69
2022/07/05 01:38:20;;;;;;;7.63;3.22;;;;;;;11.28;100.00;98774.78;5105907;28;20024;-69
2022/07/05 01:40:50;;;;;;;6.82;3.22;;;;;;;11.30;100.00;98777.38;5105824;28;20026;-69
2022/07/05 01:43:15;;;;;;;8.73;2.97;;;;;;;11.16;100.00;98771.50;5105806;28;20047;-69
2022/07/05 01:45:41;;;;;;;5.65;2.65;;;;;;;10.80;100.00;98770.44;5105699;28;20020;-69
2022/07/05 01:48:15;;;;;;;7.75;2.78;;;;;;;10.71;100.00;98770.59;5105839;28;20022;-69
2022/07/05 01:51:13;;;;;;;5.68;3.13;;;;;;;10.75;100.00;98777.53;5105649;28;20060;-69
2022/07/05 01:53:40;;;;;;;11.52;2.92;;;;;;;10.75;100.00;98775.78;5083634;28;20358;-69
2022/07/05 01:56:06;;;;;;;7.00;3.67;;;;;;;10.79;100.00;98784.50;5112096;28;20410;-69
2022/07/05 01:58:32;;;;;;;7.47;3.25;;;;;;;10.89;100.00;98786.09;5117488;28;20024;-69
2022/07/05 02:00:58;;;;;;;5.22;3.00;;;;;;;10.97;100.00;98794.69;5105363;28;20200;-69
2022/07/05 02:03:25;;;;;;;7.25;3.67;;;;;;;11.01;100.00;98790.25;5105339;28;20050;-69
2022/07/05 02:05:50;;;;;;;5.00;2.78;;;;;;;10.98;100.00;98785.88;5105501;28;20020;-69
2022/07/05 02:08:17;;;;;;;9.55;3.05;;;;;;;10.95;100.00;98792.09;5105224;28;20331;-69
2022/07/05 02:10:43;;;;;;;4.80;2.95;;;;;;;10.90;100.00;98787.81;5105256;28;20369;-69
2022/07/05 02:13:09;;;;;;;5.75;3.60;;;;;;;10.77;100.00;98781.03;5105173;28;20027;-69
2022/07/05 02:15:37;;;;;;;4.22;3.03;;;;;;;10.78;100.00;98783.63;5105153;28;20334;-69
2022/07/05 02:18:04;;;;;;;5.47;3.05;;;;;;;10.77;100.00;98786.28;5105101;28;20342;-69
2022/07/05 02:20:30;;;;;;;5.70;2.70;;;;;;;10.61;100.00;98774.31;5105205;28;20030;-69
2022/07/05 02:22:56;;;;;;;4.88;3.10;;;;;;;10.54;100.00;98781.41;5105041;28;20109;-69
2022/07/05 02:25:22;;;;;;;11.48;3.05;;;;;;;10.68;100.00;98786.44;5104256;28;20044;-69
2022/07/05 02:27:47;;;;;;;3.08;2.50;;;;;;;10.76;100.00;98780.16;5104996;28;20035;-69
2022/07/05 02:30:13;;;;;;;6.78;3.13;;;;;;;10.79;100.00;98780.09;5105253;28;20055;-69
2022/07/05 02:32:38;;;;;;;4.80;2.63;;;;;;;10.74;100.00;98786.34;5105139;28;20016;-69
2022/07/05 02:35:05;;;;;;;5.40;2.80;;;;;;;10.64;100.00;98784.78;5104776;28;20373;-69
2022/07/05 02:37:30;;;;;;;6.38;3.35;;;;;;;10.66;100.00;98788.22;5105044;28;20016;-69
2022/07/05 02:39:56;;;;;;;10.32;3.53;;;;;;;10.64;100.00;98790.03;5104732;28;20020;-69
2022/07/05 02:42:21;;;;;;;3.30;2.75;;;;;;;10.52;100.00;98790.25;5104702;28;20024;-69
2022/07/05 02:44:47;;;;;;;4.07;2.88;;;;;;;10.54;100.00;98788.47;5104647;28;20020;-69
2022/07/05 02:47:12;;;;;;;6.40;2.80;;;;;;;10.50;100.00;98790.25;5104663;28;20055;-69
2022/07/05 02:49:37;;;;;;;4.63;2.78;;;;;;;10.31;100.00;98787.94;5104505;28;20023;-69
2022/07/05 02:52:03;;;;;;;4.05;2.95;;;;;;;10.26;100.00;98793.31;5104590;28;20026;-69
2022/07/05 02:54:28;;;;;;;5.47;3.40;;;;;;;10.24;100.00;98791.56;5105356;28;20036;-69
2022/07/05 02:56:54;;;;;;;4.25;2.65;;;;;;;10.14;100.00;98795.25;5110880;28;20360;-69
2022/07/05 02:59:19;;;;;;;6.22;3.45;;;;;;;10.33;100.00;98799.31;5118417;28;20015;-69
2022/07/05 03:01:44;;;;;;;4.35;2.80;;;;;;;10.38;100.00;98795.72;5107380;28;20020;-69
2022/07/05 03:04:10;;;;;;;7.78;3.42;;;;;;;10.29;100.00;98798.50;5086279;28;20020;-69
2022/07/05 03:06:36;;;;;;;4.60;3.10;;;;;;;10.30;100.00;98796.75;5104295;28;20035;-69
2022/07/05 03:09:02;;;;;;;5.22;3.15;;;;;;;10.31;100.00;98793.19;5104303;28;20020;-69
2022/07/05 03:11:27;;;;;;;5.68;2.60;;;;;;;10.27;100.00;98797.66;5104265;28;20035;-69
2022/07/05 03:13:52;;;;;;;5.38;3.08;;;;;;;10.33;100.00;98799.31;5104262;28;20023;-69
2022/07/05 03:16:18;;;;;;;4.22;2.88;;;;;;;10.35;100.00;98798.41;5104144;28;20020;-69
2022/07/05 03:18:43;;;;;;;3.80;3.08;;;;;;;10.34;100.00;98801.94;5104246;28;20308;-69
2022/07/05 03:21:08;;;;;;;8.40;3.60;;;;;;;10.35;100.00;98802.81;5104123;28;20020;-69
2022/07/05 03:23:34;;;;;;;6.80;2.97;;;;;;;10.36;100.00;98799.28;5104201;28;20054;-69
2022/07/05 03:25:59;;;;;;;4.05;2.80;;;;;;;10.33;100.00;98799.31;5104221;28;20036;-69
2022/07/05 03:28:25;;;;;;;5.53;3.20;;;;;;;10.33;100.00;98799.31;5103909;28;20024;-69
2022/07/05 03:30:50;;;;;;;7.50;2.97;;;;;;;10.31;100.00;98801.09;5104011;28;20043;-69
2022/07/05 03:33:16;;;;;;;4.35;2.78;;;;;;;10.20;100.00;98798.66;5104006;28;20063;-69
2022/07/05 03:35:41;;;;;;;7.10;3.20;;;;;;;10.03;100.00;98805.03;5104002;28;20028;-69
2022/07/05 03:38:07;;;;;;;4.97;3.38;;;;;;;10.03;100.00;98805.88;5105872;28;20019;-69
2022/07/05 03:40:32;;;;;;;4.05;3.28;;;;;;;10.04;100.00;98810.25;5108228;28;20016;-69
2022/07/05 03:42:57;;;;;;;5.32;3.10;;;;;;;9.96;100.00;98813.88;5108118;28;20027;-69
2022/07/05 03:45:23;;;;;;;7.65;3.25;;;;;;;10.01;100.00;98819.94;5106456;28;20030;-69
2022/07/05 03:47:48;;;;;;;3.55;2.80;;;;;;;10.09;100.00;98818.09;5107096;28;20039;-69
2022/07/05 03:50:14;;;;;;;3.53;2.92;;;;;;;10.15;100.00;98820.63;5106954;28;20026;-69
2022/07/05 03:52:39;;;;;;;5.20;2.92;;;;;;;10.21;100.00;98826.69;5107024;28;20023;-69
2022/07/05 03:55:04;;;;;;;5.55;3.25;;;;;;;10.26;100.00;98834.53;5112371;28;20180;-69
2022/07/05 03:57:30;;;;;;;3.83;3.05;;;;;;;10.23;100.00;98839.81;5117311;28;20023;-69
2022/07/05 03:59:56;;;;;;;6.78;3.50;;;;;;;10.19;100.00;98838.13;5110559;28;20303;-69
2022/07/05 04:02:21;;;;;;;4.40;2.55;;;;;;;10.27;100.00;98841.50;5117699;28;20027;-69
2022/07/05 04:04:47;;;;;;;3.28;2.70;;;;;;;10.24;100.00;98841.56;5128152;28;20043;-69
2022/07/05 04:07:12;;;;;;;5.15;2.78;;;;;;;10.23;100.00;98840.69;5126023;28;20072;-69
2022/07/05 04:09:37;;;;;;;6.57;3.10;;;;;;;10.17;100.00;98840.78;5122826;28;20053;-69
2022/07/05 04:12:04;;;;;;;4.85;2.55;;;;;;;10.20;100.00;98850.38;5128096;28;20361;-69
2022/07/05 04:14:30;;;;;;;4.38;3.25;;;;;;;10.27;100.00;98846.75;5127915;28;20030;-69
2022/07/05 04:16:55;;;;;;;5.85;3.20;;;;;;;10.36;100.00;98847.50;5127911;28;20039;-69
2022/07/05 04:19:21;;;;;;;3.38;2.70;;;;;;;10.34;100.00;98853.66;5127866;28;20026;-69
2022/07/05 04:21:46;;;;;;;4.15;2.95;;;;;;;10.41;100.00;98855.34;5127830;28;20080;-69
2022/07/05 04:24:12;;;;;;;4.70;3.33;;;;;;;10.45;100.00;98852.63;5127738;28;20020;-69
2022/07/05 04:26:37;;;;;;;7.47;3.40;;;;;;;10.54;100.00;98851.63;5127695;28;20039;-69
2022/07/05 04:29:03;;;;;;;4.75;2.95;;;;;;;10.56;100.00;98852.44;5127559;28;20023;-69
2022/07/05 04:31:28;;;;;;;5.53;3.30;;;;;;;10.62;100.00;98844.47;5127642;28;20020;-69
2022/07/05 04:33:53;;;;;;;8.77;3.53;;;;;;;10.67;100.00;98858.44;5127648;28;20026;-69
2022/07/05 04:36:19;;;;;;;5.90;3.42;;;;;;;11.02;100.00;98860.47;5127548;28;20149;-69
2022/07/05 04:38:44;;;;;;;7.38;3.03;;;;;;;11.85;98.54;98862.38;5109324;28;20011;-69
2022/07/05 04:41:09;;;;;;;4.50;2.55;;;;;;;13.29;90.34;98863.38;5127451;28;20043;-69
2022/07/05 04:43:35;;;;;;;4.10;2.72;;;;;;;14.78;83.05;98860.66;5127591;28;20015;-69
2022/07/05 04:46:00;;;;;;;2.45;2.20;;;;;;;15.87;77.50;98865.69;5127363;28;20031;-70
2022/07/05 04:48:26;;;;;;;4.32;2.00;;;;;;;16.72;73.35;98858.84;5126671;28;20023;-70
2022/07/05 04:50:51;;;;;;;3.05;1.85;;;;;;;17.42;69.98;98861.22;5127266;28;20039;-70
2022/07/05 04:53:16;;;;;;;3.15;1.90;;;;;;;18.00;67.73;98871.09;5127242;28;20338;-70
2022/07/05 04:55:42;;;;;;;1.80;1.40;;;;;;;18.55;67.55;98875.63;5127245;28;20023;-70
2022/07/05 04:58:07;;;;;;;8.38;1.75;;;;;;;18.75;66.37;98873.72;5127142;28;20019;-70
2022/07/05 05:00:32;;;;;;;3.83;1.48;;;;;;;19.10;64.61;98875.53;5127075;28;20012;-70
2022/07/05 05:02:58;;;;;;;2.17;1.48;;;;;;;19.43;63.74;98886.38;5127007;28;20045;-70
2022/07/05 05:05:23;;;;;;;4.22;1.48;;;;;;;19.66;63.86;98880.69;5126996;28;20125;-70
2022/07/05 05:07:48;;;;;;;4.53;1.45;;;;;;;20.05;61.91;98883.94;5126999;28;20027;-70
2022/07/05 05:10:14;;;;;;;3.20;1.40;;;;;;;19.99;61.64;98873.56;5126828;28;20319;-70
2022/07/05 05:12:39;;;;;;;7.25;1.65;;;;;;;20.25;61.50;98886.44;5126816;28;20058;-70
2022/07/05 05:15:08;;;;;;;3.33;1.40;;;;;;;20.47;61.49;98881.63;5126923;28;20061;-70
2022/07/05 05:17:38;;;;;;;2.60;1.50;;;;;;;20.63;60.82;98887.03;5127014;28;20368;-70
2022/07/05 05:20:15;;;;;;;4.60;1.42;;;;;;;21.23;60.25;98889.75;5126835;28;20023;-70
2022/07/05 05:22:41;;;;;;;3.60;1.60;;;;;;;21.49;59.88;98885.56;5126747;28;20023;-70
2022/07/05 05:25:07;;;;;;;2.83;1.38;;;;;;;22.00;58.83;98886.97;5126606;28;20101;-70
2022/07/05 05:27:33;;;;;;;4.50;1.50;;;;;;;22.24;57.76;98888.13;5126468;28;20023;-70
2022/07/05 05:29:58;;;;;;;4.35;1.20;;;;;;;22.51;56.26;98883.75;5126392;28;20065;-70
2022/07/05 05:32:24;;;;;;;4.53;1.33;;;;;;;22.44;57.08;98893.97;5126489;28;20181;-70
2022/07/05 05:34:49;;;;;;;4.05;1.50;;;;;;;22.21;56.83;98897.22;5126392;28;20019;-70
2022/07/05 05:37:14;;;;;;;3.53;1.23;;;;;;;22.28;58.34;98893.22;5126436;28;20020;-70
2022/07/05 05:39:40;;;;;;;4.68;1.35;;;;;;;22.81;57.71;98903.28;5126346;28;20019;-70
2022/07/05 05:42:05;;;;;;;4.88;1.42;;;;;;;23.12;56.95;98902.97;5126318;28;20027;-70
2022/07/05 05:44:31;;;;;;;3.35;1.50;;;;;;;23.47;57.12;98914.13;5126188;28;20029;-70
2022/07/05 05:46:56;;;;;;;6.93;1.83;;;;;;;24.30;54.15;98923.53;5126160;28;20271;-70
2022/07/05 05:49:21;;;;;;;1.52;1.38;;;;;;;24.54;55.38;98921.81;5126068;28;20030;-70
2022/07/05 05:51:47;;;;;;;4.75;1.55;;;;;;;24.74;55.01;98918.56;5126036;28;20028;-70
2022/07/05 05:54:12;;;;;;;6.68;1.40;;;;;;;24.77;53.30;98912.97;5126085;28;20403;-70
2022/07/05 05:56:40;;;;;;;2.92;1.20;;;;;;;24.97;53.78;98920.47;5126022;28;20019;-70
2022/07/05 05:59:05;;;;;;;3.47;1.60;;;;;;;25.17;51.68;98917.19;5125936;28;20021;-70
2022/07/05 06:01:31;;;;;;;3.53;1.73;;;;;;;24.61;54.66;98911.44;5124936;28;20051;-70
2022/07/05 06:03:56;;;;;;;5.45;1.67;;;;;;;25.38;53.37;98930.06;5125819;28;20037;-70
2022/07/05 06:06:22;;;;;;;6.38;1.75;;;;;;;25.42;52.99;98920.75;5125802;28;20020;-70
2022/07/05 06:08:47;;;;;;;4.43;1.60;;;;;;;26.23;52.25;98931.50;5125669;28;20019;-70
2022/07/05 06:11:13;;;;;;;3.40;1.60;;;;;;;26.18;52.49;98922.06;5125707;28;20335;-70
2022/07/05 06:13:39;;;;;;;11.98;2.20;;;;;;;25.61;53.26;98926.50;5125571;28;20019;-70
2022/07/05 06:16:06;;;;;;;8.05;1.70;;;;;;;26.03;50.88;98925.94;5125592;28;20023;-70
2022/07/05 06:18:31;;;;;;;5.32;1.85;;;;;;;25.49;53.61;98922.03;5125545;28;20019;-70
2022/07/05 06:20:56;;;;;;;4.65;1.48;;;;;;;25.63;53.43;98924.56;5125518;28;20029;-70
2022/07/05 06:23:22;;;;;;;3.03;1.55;;;;;;;26.26;52.14;98927.75;5125423;28;20019;-70
2022/07/05 06:25:47;;;;;;;5.60;1.83;;;;;;;26.68;50.05;98938.75;5125342;28;20032;-70
2022/07/05 06:28:13;;;;;;;3.58;1.40;;;;;;;26.54;49.84;98927.28;5125346;28;20245;-70
2022/07/05 06:30:39;;;;;;;4.65;1.50;;;;;;;26.44;50.07;98923.56;5125304;28;20052;-70
2022/07/05 06:33:04;;;;;;;6.75;1.70;;;;;;;27.28;48.51;98932.94;5125243;28;20383;-70
2022/07/05 06:35:30;;;;;;;8.43;1.48;;;;;;;27.52;49.12;98936.31;5125242;28;20019;-70
2022/07/05 06:38:02;;;;;;;3.33;1.60;;;;;;;27.70;48.96;98940.19;5125214;28;20030;-70
2022/07/05 06:40:32;;;;;;;4.80;1.85;;;;;;;28.48;48.94;98940.69;5125176;28;20039;-70
2022/07/05 06:43:00;;;;;;;2.08;1.48;;;;;;;27.88;47.53;98944.09;5125110;28;20082;-70
2022/07/05 06:45:25;;;;;;;4.78;1.73;;;;;;;28.44;47.09;98948.19;5124996;28;20019;-70
2022/07/05 06:48:06;;;;;;;6.00;1.80;;;;;;;28.90;45.61;98945.03;5124950;28;20020;-70
2022/07/05 06:50:35;;;;;;;4.95;1.65;;;;;;;29.77;44.31;98942.44;5125222;28;20188;-70
2022/07/05 06:53:01;;;;;;;3.35;1.52;;;;;;;29.89;43.06;98937.78;5124976;28;20049;-70
2022/07/05 06:55:27;;;;;;;4.22;1.30;;;;;;;29.72;42.95;98947.47;5124910;28;20031;-70
2022/07/05 06:58:05;;;;;;;6.63;1.50;;;;;;;30.82;39.11;98947.81;5125121;28;20303;-70
2022/07/05 07:00:31;;;;;;;3.53;1.70;;;;;;;30.77;41.18;98955.53;5125072;28;20019;-71
2022/07/05 07:02:57;;;;;;;7.90;1.83;;;;;;;31.04;38.34;98936.56;5124721;28;20023;-71
2022/07/05 07:05:23;;;;;;;3.78;1.50;;;;;;;31.62;39.28;98951.56;5124771;28;20047;-71
2022/07/05 07:10:32;;;;;;;5.63;1.60;;;;;;;31.13;39.69;98947.38;5124639;28;20219;-71
2022/07/05 07:12:59;;;;;;;9.48;1.65;;;;;;;31.57;37.86;98951.16;5124403;28;20087;-71
2022/07/05 07:15:25;;;;;;;5.90;1.45;;;;;;;31.90;37.28;98958.72;5124600;28;20245;-71
2022/07/05 07:17:50;;;;;;;6.20;1.60;;;;;;;31.80;36.90;98957.03;5124633;28;20046;-71
2022/07/05 07:20:16;;;;;;;4.32;1.42;;;;;;;31.30;37.26;98953.91;5124647;28;20039;-71
2022/07/05 07:22:41;;;;;;;6.93;1.60;;;;;;;31.69;37.22;98960.81;5124536;28;20033;-71
2022/07/05 07:25:08;;;;;;;8.50;1.65;;;;;;;32.82;35.90;98968.16;5124456;28;20067;-71
2022/07/05 07:27:44;;;;;;;5.03;1.35;;;;;;;33.12;34.69;98958.66;5124505;28;20023;-71
2022/07/05 07:30:17;;;;;;;3.85;1.20;;;;;;;32.76;36.28;98963.34;5124374;28;20130;-71
2022/07/05 07:32:44;;;;;;;15.85;1.85;;;;;;;33.37;35.09;98964.06;5124504;28;20030;-71
2022/07/05 07:35:09;;;;;;;4.20;1.30;;;;;;;33.30;35.13;98963.00;5124457;28;20057;-71
2022/07/05 07:37:35;;;;;;;6.50;1.27;;;;;;;32.13;37.17;98954.50;5124384;28;20031;-71
2022/07/05 07:40:03;;;;;;;7.97;1.70;;;;;;;31.85;36.58;98958.31;5124402;28;20019;-71
2022/07/05 07:42:29;;;;;;;4.97;1.60;;;;;;;31.35;38.91;98950.75;5124539;28;20016;-71
2022/07/05 07:44:54;;;;;;;2.65;1.30;;;;;;;31.44;36.81;98961.56;5124353;28;20369;-71
2022/07/05 07:47:19;;;;;;;5.07;1.50;;;;;;;31.51;37.63;98962.66;5124336;28;20235;-71
2022/07/05 07:49:45;;;;;;;9.30;1.52;;;;;;;32.66;36.38;98963.47;5124203;28;20026;-71
2022/07/05 07:52:11;;;;;;;7.45;1.80;;;;;;;32.71;35.61;98971.19;5124502;28;20095;-71
2022/07/05 07:54:36;;;;;;;8.55;1.52;;;;;;;33.32;33.99;98976.47;5124221;28;20216;-71
2022/07/05 07:57:04;;;;;;;4.35;1.35;;;;;;;33.61;34.62;98968.75;5124209;28;20098;-71
2022/07/05 07:59:30;;;;;;;5.70;1.42;;;;;;;33.52;34.77;98970.63;5124212;28;20023;-71
2022/07/05 08:01:55;;;;;;;5.55;1.27;;;;;;;33.95;34.13;98975.03;5124187;28;20030;-71
2022/07/05 08:04:20;;;;;;;2.78;1.20;;;;;;;33.79;33.94;98966.78;5124166;28;20054;-71
2022/07/05 08:06:46;;;;;;;5.18;1.75;;;;;;;33.01;34.94;98963.38;5124149;28;20342;-71
2022/07/05 08:09:12;;;;;;;5.47;1.20;;;;;;;33.08;32.35;98967.16;5123989;28;20020;-71
2022/07/05 08:11:38;;;;;;;5.22;1.30;;;;;;;33.33;31.02;98956.34;5124040;28;20015;-71
2022/07/05 08:14:03;;;;;;;2.50;1.33;;;;;;;32.94;32.44;98967.75;5124139;28;20035;-71
2022/07/05 08:16:28;;;;;;;6.03;1.10;;;;;;;33.36;31.08;98966.94;5124065;28;20023;-71
2022/07/05 08:21:38;;;;;;;2.63;1.17;;;;;;;34.09;32.31;98968.88;5124123;28;20065;-70
2022/07/05 08:24:08;;;;;;;3.03;1.15;;;;;;;34.20;32.28;98969.41;5125814;28;20051;-71
2022/07/05 08:26:35;;;;;;;3.33;1.20;;;;;;;34.68;30.84;98968.59;5127720;28;20396;-71
2022/07/05 08:29:02;;;;;;;7.72;1.50;;;;;;;34.07;31.80;98963.59;5127864;28;20054;-71
2022/07/05 08:31:28;;;;;;;6.78;1.48;;;;;;;33.77;32.42;98958.75;5127690;28;20311;-71
2022/07/05 08:33:54;;;;;;;2.65;1.00;;;;;;;34.20;32.34;98965.84;5127700;28;20015;-71
2022/07/05 08:36:20;;;;;;;2.15;1.13;;;;;;;34.53;31.75;98959.38;5127565;28;20050;-71
2022/07/05 08:38:46;;;;;;;3.30;1.17;;;;;;;34.56;30.96;98959.03;5127571;28;20019;-71
2022/07/05 08:41:12;;;;;;;1.88;1.05;;;;;;;33.44;32.52;98947.91;5127552;28;20023;-71
2022/07/05 08:43:41;;;;;;;2.15;1.08;;;;;;;31.98;35.18;98947.88;5127500;28;20019;-71
2022/07/05 08:46:09;;;;;;;7.88;1.20;;;;;;;33.01;34.30;98957.94;5127678;28;20303;-71
2022/07/05 08:48:43;;;;;;;3.08;1.10;;;;;;;33.33;33.58;98957.22;5127526;28;20023;-71
2022/07/05 08:51:23;;;;;;;3.72;1.20;;;;;;;33.12;33.85;98945.00;5127567;28;20028;-71
2022/07/05 08:53:52;;;;;;;3.30;1.08;;;;;;;33.15;33.05;98941.97;5127302;28;20055;-71
2022/07/05 08:56:19;;;;;;;3.13;1.00;;;;;;;33.62;31.89;98940.47;5127177;28;20023;-71
2022/07/05 08:58:44;;;;;;;6.22;1.15;;;;;;;33.44;32.91;98937.00;5127214;28;20343;-71
2022/07/05 09:01:12;;;;;;;3.53;1.20;;;;;;;33.31;32.32;98942.03;5127340;28;20027;-71
2022/07/05 09:03:48;;;;;;;3.47;1.08;;;;;;;32.97;32.28;98933.88;5127045;28;20019;-71
2022/07/05 09:06:18;;;;;;;2.08;1.02;;;;;;;32.82;33.47;98940.91;5126925;28;20050;-71
2022/07/05 09:08:44;;;;;;;2.58;0.95;;;;;;;33.28;33.06;98942.34;5126905;28;20016;-71
2022/07/05 09:11:12;;;;;;;2.90;1.15;;;;;;;33.45;31.88;98938.69;5126955;28;20053;-71
2022/07/05 09:13:41;;;;;;;5.35;1.30;;;;;;;31.94;33.33;98935.59;5126949;28;20027;-71
2022/07/05 09:16:07;;;;;;;3.85;1.30;;;;;;;32.82;35.16;98958.13;5126884;28;20068;-71
2022/07/05 09:18:38;;;;;;;6.18;1.30;;;;;;;32.99;32.02;98943.59;5126790;28;20037;-71
2022/07/05 09:21:20;;;;;;;;;;;;;;;32.48;34.10;98949.03;5127162;28;20200;-71
2022/07/05 09:24:00;;;;;;;3.13;1.00;;;;;;;32.77;34.08;98954.16;5126977;28;19975;-71
2022/07/05 09:26:43;;;;;;;4.32;1.30;;;;;;;32.62;33.58;98951.16;5126505;28;20415;-71
2022/07/05 09:29:19;;;;;;;3.38;1.08;;;;;;;32.93;32.63;98946.97;5126543;28;20016;-71
2022/07/05 09:31:49;;;;;;;2.78;0.95;;;;;;;33.90;32.53;98961.00;5126553;28;20085;-71
2022/07/05 09:34:16;;;;;;;4.88;1.10;;;;;;;34.29;31.37;98959.38;5126452;28;20242;-71
2022/07/05 09:36:55;;;;;;;2.95;1.30;;;;;;;34.02;31.24;98954.22;5126369;28;20319;-71
2022/07/05 09:39:41;;;;;;;3.45;1.00;;;;;;;33.71;31.49;98956.69;5126630;28;20083;-71
2022/07/05 09:42:32;;;;;;;3.13;1.10;;;;;;;34.04;32.94;98954.91;5125717;28;20235;-71
2022/07/05 09:44:57;;;;;;;;;;;;;;;33.13;32.60;98934.78;5121795;28;20031;-71
2022/07/05 09:47:32;;;;;;;5.38;1.08;;;;;;;31.91;34.72;98935.91;5126096;28;19949;-71
2022/07/05 09:50:04;;;;;;;1.52;0.98;;;;;;;31.64;35.22;98940.53;5126351;28;20066;-71
2022/07/05 09:52:35;;;;;;;1.95;1.13;;;;;;;32.85;34.20;98954.25;5126324;28;20020;-71
2022/07/05 09:55:08;;;;;;;2.55;1.00;;;;;;;33.43;32.88;98954.41;5126104;28;20020;-71
2022/07/05 09:57:41;;;;;;;3.90;1.30;;;;;;;33.17;33.28;98934.44;5126110;28;20064;-71
2022/07/05 10:00:12;;;;;;;2.05;1.10;;;;;;;33.70;31.65;98944.06;5125996;28;20082;-71
2022/07/05 10:02:42;;;;;;;;;;;;;;;32.57;32.23;98931.72;5126300;28;20034;-71
2022/07/05 10:05:14;;;;;;;5.93;1.40;;;;;;;30.80;34.47;98917.19;5125986;28;19945;-71
2022/07/05 10:07:44;;;;;;;3.08;1.40;;;;;;;29.59;38.16;98913.41;5126069;28;20210;-71
2022/07/05 10:10:11;;;;;;;2.22;1.17;;;;;;;29.08;38.36;98917.16;5125749;28;20060;-71
2022/07/05 10:12:37;;;;;;;5.28;1.35;;;;;;;29.81;37.86;98929.47;5125797;28;20047;-71
2022/07/05 10:15:04;;;;;;;2.63;1.00;;;;;;;31.31;37.13;98944.75;5125654;28;20024;-71
2022/07/05 10:17:36;;;;;;;4.60;1.23;;;;;;;32.07;35.29;98946.94;5125575;28;20080;-71
2022/07/05 10:20:05;;;;;;;6.10;1.50;;;;;;;32.26;34.06;98946.78;5125563;28;20017;-71
2022/07/05 10:22:30;;;;;;;4.03;0.80;;;;;;;32.53;33.86;98946.69;5125515;28;20290;-71
2022/07/05 10:25:00;;;;;;;5.03;1.10;;;;;;;33.00;32.32;98945.28;5125253;28;20098;-71
2022/07/05 10:27:27;;;;;;;4.18;0.93;;;;;;;32.53;34.29;98930.34;5125294;28;20094;-71
2022/07/05 10:29:56;;;;;;;6.75;1.10;;;;;;;32.29;33.92;98932.84;5125544;28;20059;-71
2022/07/05 10:32:24;;;;;;;3.35;1.00;;;;;;;32.22;32.64;98930.91;5125342;28;20047;-71
2022/07/05 10:34:51;;;;;;;3.85;1.08;;;;;;;29.92;35.72;98913.03;5125228;28;20059;-71
2022/07/05 10:37:17;;;;;;;5.18;1.10;;;;;;;30.66;36.79;98936.69;5125275;28;20078;-71
2022/07/05 10:39:42;;;;;;;1.90;1.13;;;;;;;31.61;36.06;98936.25;5125247;28;20027;-71
2022/07/05 10:42:09;;;;;;;7.18;1.40;;;;;;;32.11;34.47;98929.28;5125210;28;20015;-71
2022/07/05 10:44:35;;;;;;;6.80;1.30;;;;;;;31.23;34.85;98915.53;5125145;28;20215;-71
2022/07/05 10:47:11;;;;;;;4.00;1.15;;;;;;;30.34;36.47;98909.03;5124592;28;20023;-71
2022/07/05 10:49:37;;;;;;;3.10;1.00;;;;;;;28.63;38.32;98896.03;5124946;28;20019;-71
2022/07/05 10:52:04;;;;;;;7.28;1.60;;;;;;;29.20;38.99;98918.78;5124990;28;20211;-71
2022/07/05 10:54:29;;;;;;;6.20;1.10;;;;;;;29.94;37.68;98920.03;5124924;28;20020;-71
2022/07/05 10:57:23;;;;;;;4.80;1.48;;;;;;;30.65;36.54;98924.06;5124950;28;20090;-71
2022/07/05 11:00:11;;;;;;;5.47;2.03;;;;;;;30.88;35.80;98928.19;5124848;28;20065;-71
2022/07/05 11:02:37;;;;;;;5.22;1.40;;;;;;;31.12;35.20;98923.06;5124813;28;20057;-71
2022/07/05 11:05:03;;;;;;;4.30;1.60;;;;;;;30.97;36.78;98919.16;5124793;28;20034;-71
2022/07/05 11:07:57;;;;;;;5.03;1.70;;;;;;;31.39;33.31;98925.81;5124735;28;20019;-71
2022/07/05 11:10:23;;;;;;;5.35;1.52;;;;;;;31.55;34.97;98925.13;5124673;28;20069;-71
2022/07/05 11:12:48;;;;;;;3.38;1.25;;;;;;;31.26;33.35;98908.97;5124685;28;20027;-71
2022/07/05 11:15:14;;;;;;;3.50;1.27;;;;;;;31.22;35.02;98912.97;5124615;28;20091;-71
2022/07/05 11:17:39;;;;;;;4.72;1.33;;;;;;;31.21;33.46;98911.28;5124657;28;20364;-71
2022/07/05 11:20:08;;;;;;;3.40;1.33;;;;;;;31.22;34.37;98912.97;5124572;28;20211;-71
2022/07/05 11:22:41;;;;;;;3.63;1.30;;;;;;;31.10;30.76;98897.91;5124637;28;20024;-71
2022/07/05 11:25:09;;;;;;;3.45;1.48;;;;;;;31.61;33.17;98916.34;5124400;28;20047;-71
2022/07/05 11:27:35;;;;;;;3.90;1.50;;;;;;;31.02;35.24;98908.66;5124655;28;20031;-71
2022/07/05 11:30:01;;;;;;;5.10;1.55;;;;;;;30.88;34.65;98898.28;5124423;28;20380;-71
2022/07/05 11:32:29;;;;;;;5.53;1.80;;;;;;;30.61;35.68;98895.50;5124485;28;20024;-71
2022/07/05 11:35:11;;;;;;;3.50;1.70;;;;;;;30.39;37.27;98896.72;5124443;28;20223;-71
2022/07/05 11:37:56;;;;;;;;;;;;;;;30.38;35.71;98888.72;5124900;28;20020;-71